sensor_id;sensor_type;location;lat;lon;timestamp;pressure;altitude;pressure_sealevel;temperature;humidity
63556;BME280;49700;48.072;7.800;2022-10-19T00:01:37;100330.34;;;15.22;nan
63556;BME280;49700;48.072;7.800;2022-10-19T00:04:03;100332.28;;;15.20;nan
63556;BME280;49700;48.072;7.800;2022-10-19T00:06:34;100323.47;;;15.20;nan
63556;BME280;49700;48.072;7.800;2022-10-19T00:09:03;100329.63;;;15.20;nan
63556;BME280;49700;48.072;7.800;2022-10-19T00:11:30;100328.66;;;15.21;nan
63556;BME280;49700;48.072;7.800;2022-10-19T00:13:56;100325.50;;;15.16;nan
63556;BME280;49700;48.072;7.800;2022-10-19T00:16:24;100317.34;;;15.07;nan
63556;BME280;49700;48.072;7.800;2022-10-19T00:18:50;100320.25;;;14.91;nan
63556;BME280;49700;48.072;7.800;2022-10-19T00:21:17;100323.22;;;14.73;nan
63556;BME280;49700;48.072;7.800;2022-10-19T00:23:43;100317.09;;;14.60;nan
63556;BME280;49700;48.072;7.800;2022-10-19T00:26:10;100318.97;;;14.45;nan
63556;BME280;49700;48.072;7.800;2022-10-19T00:28:36;100321.19;;;14.38;nan
63556;BME280;49700;48.072;7.800;2022-10-19T00:31:03;100330.50;;;14.31;nan
63556;BME280;49700;48.072;7.800;2022-10-19T00:33:29;100321.06;;;14.27;nan
63556;BME280;49700;48.072;7.800;2022-10-19T00:35:54;100326.78;;;14.21;nan
63556;BME280;49700;48.072;7.800;2022-10-19T00:38:20;100321.69;;;14.18;nan
63556;BME280;49700;48.072;7.800;2022-10-19T00:40:47;100320.94;;;14.16;nan
63556;BME280;49700;48.072;7.800;2022-10-19T00:43:20;100319.16;;;14.16;nan
63556;BME280;49700;48.072;7.800;2022-10-19T00:45:46;100320.94;;;14.16;nan
63556;BME280;49700;48.072;7.800;2022-10-19T00:48:14;100322.63;;;14.17;nan
63556;BME280;49700;48.072;7.800;2022-10-19T00:50:42;100333.94;;;14.19;nan
63556;BME280;49700;48.072;7.800;2022-10-19T00:53:08;100328.44;;;14.22;nan
63556;BME280;49700;48.072;7.800;2022-10-19T00:55:35;100319.38;;;14.26;nan
63556;BME280;49700;48.072;7.800;2022-10-19T00:58:02;100323.63;;;14.29;nan
63556;BME280;49700;48.072;7.800;2022-10-19T01:00:28;100325.38;;;14.28;nan
63556;BME280;49700;48.072;7.800;2022-10-19T01:02:53;100324.47;;;14.29;nan
63556;BME280;49700;48.072;7.800;2022-10-19T01:05:20;100337.66;;;14.29;nan
63556;BME280;49700;48.072;7.800;2022-10-19T01:07:45;100332.38;;;14.29;nan
63556;BME280;49700;48.072;7.800;2022-10-19T01:10:11;100333.97;;;14.32;nan
63556;BME280;49700;48.072;7.800;2022-10-19T01:15:48;100324.16;;;14.34;nan
63556;BME280;49700;48.072;7.800;2022-10-19T01:18:21;100327.63;;;14.34;nan
63556;BME280;49700;48.072;7.800;2022-10-19T01:27:05;100330.06;;;14.37;nan
63556;BME280;49700;48.072;7.800;2022-10-19T01:29:59;100329.09;;;14.38;nan
63556;BME280;49700;48.072;7.800;2022-10-19T01:32:35;100329.66;;;14.44;nan
63556;BME280;49700;48.072;7.800;2022-10-19T01:35:10;100327.75;;;14.46;nan
63556;BME280;49700;48.072;7.800;2022-10-19T01:37:53;100326.78;;;14.47;nan
63556;BME280;49700;48.072;7.800;2022-10-19T01:40:27;100327.00;;;14.44;nan
63556;BME280;49700;48.072;7.800;2022-10-19T01:43:12;100327.97;;;14.43;nan
63556;BME280;49700;48.072;7.800;2022-10-19T01:45:46;100315.88;;;14.38;nan
63556;BME280;49700;48.072;7.800;2022-10-19T01:48:18;100317.59;;;14.39;nan
63556;BME280;49700;48.072;7.800;2022-10-19T01:50:57;100307.97;;;14.38;nan
63556;BME280;49700;48.072;7.800;2022-10-19T01:53:28;100316.00;;;14.37;nan
63556;BME280;49700;48.072;7.800;2022-10-19T01:55:54;100309.84;;;14.36;nan
63556;BME280;49700;48.072;7.800;2022-10-19T01:58:27;100308.94;;;14.37;nan
63556;BME280;49700;48.072;7.800;2022-10-19T02:00:57;100307.97;;;14.38;nan
63556;BME280;49700;48.072;7.800;2022-10-19T02:03:27;100314.75;;;14.43;nan
63556;BME280;49700;48.072;7.800;2022-10-19T02:05:53;100309.34;;;14.44;nan
63556;BME280;49700;48.072;7.800;2022-10-19T02:08:43;100311.88;;;14.46;nan
63556;BME280;49700;48.072;7.800;2022-10-19T02:11:10;100309.88;;;14.49;nan
63556;BME280;49700;48.072;7.800;2022-10-19T02:13:38;100307.97;;;14.51;nan
63556;BME280;49700;48.072;7.800;2022-10-19T02:16:08;100305.28;;;14.53;nan
63556;BME280;49700;48.072;7.800;2022-10-19T02:18:39;100307.78;;;14.54;nan
63556;BME280;49700;48.072;7.800;2022-10-19T02:21:07;100299.78;;;14.56;nan
63556;BME280;49700;48.072;7.800;2022-10-19T02:23:33;100299.78;;;14.56;nan
63556;BME280;49700;48.072;7.800;2022-10-19T02:25:59;100293.50;;;14.57;nan
63556;BME280;49700;48.072;7.800;2022-10-19T02:28:26;100297.00;;;14.57;nan
63556;BME280;49700;48.072;7.800;2022-10-19T02:30:52;100285.59;;;14.57;nan
63556;BME280;49700;48.072;7.800;2022-10-19T02:33:18;100280.00;;;14.62;nan
63556;BME280;49700;48.072;7.800;2022-10-19T02:35:43;100276.28;;;14.64;nan
63556;BME280;49700;48.072;7.800;2022-10-19T02:38:10;100281.13;;;14.70;nan
63556;BME280;49700;48.072;7.800;2022-10-19T02:40:42;100281.66;;;14.75;nan
63556;BME280;49700;48.072;7.800;2022-10-19T02:43:13;100278.78;;;14.78;nan
63556;BME280;49700;48.072;7.800;2022-10-19T02:45:53;100290.88;;;14.82;nan
63556;BME280;49700;48.072;7.800;2022-10-19T02:48:23;100288.72;;;14.88;nan
63556;BME280;49700;48.072;7.800;2022-10-19T02:50:51;100283.84;;;14.94;nan
63556;BME280;49700;48.072;7.800;2022-10-19T02:53:16;100285.22;;;15.00;nan
63556;BME280;49700;48.072;7.800;2022-10-19T02:55:43;100289.44;;;15.02;nan
63556;BME280;49700;48.072;7.800;2022-10-19T02:58:08;100299.91;;;15.04;nan
63556;BME280;49700;48.072;7.800;2022-10-19T03:00:34;100289.00;;;15.09;nan
63556;BME280;49700;48.072;7.800;2022-10-19T03:03:00;100278.31;;;15.10;nan
63556;BME280;49700;48.072;7.800;2022-10-19T03:05:27;100275.53;;;15.12;nan
63556;BME280;49700;48.072;7.800;2022-10-19T03:07:53;100278.94;;;15.14;nan
63556;BME280;49700;48.072;7.800;2022-10-19T03:10:18;100285.91;;;15.15;nan
63556;BME280;49700;48.072;7.800;2022-10-19T03:12:43;100283.16;;;15.16;nan
63556;BME280;49700;48.072;7.800;2022-10-19T03:15:13;100274.25;;;15.17;nan
63556;BME280;49700;48.072;7.800;2022-10-19T03:17:39;100272.56;;;15.16;nan
63556;BME280;49700;48.072;7.800;2022-10-19T03:20:05;100268.34;;;15.14;nan
63556;BME280;49700;48.072;7.800;2022-10-19T03:22:30;100273.88;;;15.11;nan
63556;BME280;49700;48.072;7.800;2022-10-19T03:24:55;100271.31;;;15.09;nan
63556;BME280;49700;48.072;7.800;2022-10-19T03:27:21;100267.97;;;15.07;nan
63556;BME280;49700;48.072;7.800;2022-10-19T03:29:46;100269.03;;;15.04;nan
63556;BME280;49700;48.072;7.800;2022-10-19T03:32:11;100267.22;;;15.05;nan
63556;BME280;49700;48.072;7.800;2022-10-19T03:34:37;100268.06;;;15.05;nan
63556;BME280;49700;48.072;7.800;2022-10-19T03:37:02;100265.41;;;15.05;nan
63556;BME280;49700;48.072;7.800;2022-10-19T03:39:28;100260.03;;;15.07;nan
63556;BME280;49700;48.072;7.800;2022-10-19T03:41:53;100250.28;;;15.08;nan
63556;BME280;49700;48.072;7.800;2022-10-19T03:44:18;100259.06;;;15.08;nan
63556;BME280;49700;48.072;7.800;2022-10-19T03:46:44;100259.06;;;15.08;nan
63556;BME280;49700;48.072;7.800;2022-10-19T03:49:10;100269.03;;;15.04;nan
63556;BME280;49700;48.072;7.800;2022-10-19T03:51:35;100263.94;;;15.01;nan
63556;BME280;49700;48.072;7.800;2022-10-19T03:54:03;100265.00;;;14.99;nan
63556;BME280;49700;48.072;7.800;2022-10-19T03:56:30;100267.84;;;14.96;nan
63556;BME280;49700;48.072;7.800;2022-10-19T03:58:58;100266.63;;;14.89;nan
63556;BME280;49700;48.072;7.800;2022-10-19T04:01:29;100256.13;;;14.87;nan
63556;BME280;49700;48.072;7.800;2022-10-19T04:03:57;100252.13;;;14.81;nan
63556;BME280;49700;48.072;7.800;2022-10-19T04:06:29;100252.25;;;14.80;nan
63556;BME280;49700;48.072;7.800;2022-10-19T04:08:54;100255.97;;;14.77;nan
63556;BME280;49700;48.072;7.800;2022-10-19T04:11:22;100249.72;;;14.78;nan
63556;BME280;49700;48.072;7.800;2022-10-19T04:13:49;100248.44;;;14.71;nan
63556;BME280;49700;48.072;7.800;2022-10-19T04:16:15;100253.84;;;14.70;nan
63556;BME280;49700;48.072;7.800;2022-10-19T04:18:41;100246.00;;;14.68;nan
63556;BME280;49700;48.072;7.800;2022-10-19T04:21:21;100249.63;;;14.67;nan
63556;BME280;49700;48.072;7.800;2022-10-19T04:23:47;100255.66;;;14.69;nan
63556;BME280;49700;48.072;7.800;2022-10-19T04:26:13;100254.78;;;14.69;nan
63556;BME280;49700;48.072;7.800;2022-10-19T04:28:38;100266.00;;;14.72;nan
63556;BME280;49700;48.072;7.800;2022-10-19T04:31:04;100263.16;;;14.75;nan
63556;BME280;49700;48.072;7.800;2022-10-19T04:33:31;100265.34;;;14.81;nan
63556;BME280;49700;48.072;7.800;2022-10-19T04:36:01;100263.44;;;14.83;nan
63556;BME280;49700;48.072;7.800;2022-10-19T04:38:27;100267.56;;;14.88;nan
63556;BME280;49700;48.072;7.800;2022-10-19T04:40:53;100264.72;;;14.91;nan
63556;BME280;49700;48.072;7.800;2022-10-19T04:43:19;100262.91;;;14.91;nan
63556;BME280;49700;48.072;7.800;2022-10-19T04:45:44;100257.50;;;14.93;nan
63556;BME280;49700;48.072;7.800;2022-10-19T04:48:09;100248.84;;;14.91;nan
63556;BME280;49700;48.072;7.800;2022-10-19T04:50:35;100246.84;;;14.81;nan
63556;BME280;49700;48.072;7.800;2022-10-19T04:53:00;100243.91;;;14.73;nan
63556;BME280;49700;48.072;7.800;2022-10-19T04:55:26;100246.84;;;14.69;nan
63556;BME280;49700;48.072;7.800;2022-10-19T04:57:51;100239.16;;;14.66;nan
63556;BME280;49700;48.072;7.800;2022-10-19T05:00:16;100237.69;;;14.62;nan
63556;BME280;49700;48.072;7.800;2022-10-19T05:02:43;100233.44;;;14.59;nan
63556;BME280;49700;48.072;7.800;2022-10-19T05:05:10;100230.16;;;14.55;nan
63556;BME280;49700;48.072;7.800;2022-10-19T05:07:35;100231.25;;;14.53;nan
63556;BME280;49700;48.072;7.800;2022-10-19T05:10:00;100232.16;;;14.52;nan
63556;BME280;49700;48.072;7.800;2022-10-19T05:12:26;100228.97;;;14.47;nan
63556;BME280;49700;48.072;7.800;2022-10-19T05:14:51;100236.06;;;14.46;nan
63556;BME280;49700;48.072;7.800;2022-10-19T05:17:17;100238.84;;;14.45;nan
63556;BME280;49700;48.072;7.800;2022-10-19T05:19:42;100238.84;;;14.45;nan
63556;BME280;49700;48.072;7.800;2022-10-19T05:22:08;100247.47;;;14.47;nan
63556;BME280;49700;48.072;7.800;2022-10-19T05:24:33;100246.44;;;14.49;nan
63556;BME280;49700;48.072;7.800;2022-10-19T05:26:58;100246.34;;;14.51;nan
63556;BME280;49700;48.072;7.800;2022-10-19T05:29:24;100249.75;;;14.53;nan
63556;BME280;49700;48.072;7.800;2022-10-19T05:31:49;100253.88;;;14.57;nan
63556;BME280;49700;48.072;7.800;2022-10-19T05:34:15;100246.69;;;14.59;nan
63556;BME280;49700;48.072;7.800;2022-10-19T05:36:40;100244.34;;;14.54;nan
63556;BME280;49700;48.072;7.800;2022-10-19T05:39:11;100238.41;;;14.51;nan
63556;BME280;49700;48.072;7.800;2022-10-19T05:41:37;100234.28;;;14.47;nan
63556;BME280;49700;48.072;7.800;2022-10-19T05:44:03;100236.19;;;14.45;nan
63556;BME280;49700;48.072;7.800;2022-10-19T05:46:31;100245.81;;;14.46;nan
63556;BME280;49700;48.072;7.800;2022-10-19T05:48:57;100245.69;;;14.47;nan
63556;BME280;49700;48.072;7.800;2022-10-19T05:51:25;100248.44;;;14.46;nan
63556;BME280;49700;48.072;7.800;2022-10-19T05:53:52;100243.25;;;14.44;nan
63556;BME280;49700;48.072;7.800;2022-10-19T05:56:20;100239.78;;;14.44;nan
63556;BME280;49700;48.072;7.800;2022-10-19T05:58:47;100238.09;;;14.43;nan
63556;BME280;49700;48.072;7.800;2022-10-19T06:01:13;100238.09;;;14.43;nan
63556;BME280;49700;48.072;7.800;2022-10-19T06:03:39;100240.75;;;14.43;nan
63556;BME280;49700;48.072;7.800;2022-10-19T06:06:06;100236.19;;;14.45;nan
63556;BME280;49700;48.072;7.800;2022-10-19T06:08:32;100243.91;;;14.48;nan
63556;BME280;49700;48.072;7.800;2022-10-19T06:11:09;100240.31;;;14.49;nan
63556;BME280;49700;48.072;7.800;2022-10-19T06:13:35;100237.75;;;14.47;nan
63556;BME280;49700;48.072;7.800;2022-10-19T06:16:01;100237.75;;;14.47;nan
63556;BME280;49700;48.072;7.800;2022-10-19T06:18:27;100242.09;;;14.48;nan
63556;BME280;49700;48.072;7.800;2022-10-19T06:20:52;100239.47;;;14.48;nan
63556;BME280;49700;48.072;7.800;2022-10-19T06:23:18;100237.66;;;14.49;nan
63556;BME280;49700;48.072;7.800;2022-10-19T06:25:43;100239.25;;;14.51;nan
63556;BME280;49700;48.072;7.800;2022-10-19T06:28:09;100247.13;;;14.53;nan
63556;BME280;49700;48.072;7.800;2022-10-19T06:30:38;100246.16;;;14.54;nan
63556;BME280;49700;48.072;7.800;2022-10-19T06:33:04;100246.34;;;14.51;nan
63556;BME280;49700;48.072;7.800;2022-10-19T06:35:29;100248.44;;;14.46;nan
63556;BME280;49700;48.072;7.800;2022-10-19T06:37:56;100249.41;;;14.45;nan
63556;BME280;49700;48.072;7.800;2022-10-19T06:40:22;100256.81;;;14.39;nan
63556;BME280;49700;48.072;7.800;2022-10-19T06:42:48;100248.22;;;14.36;nan
63556;BME280;49700;48.072;7.800;2022-10-19T06:45:13;100258.94;;;14.34;nan
63556;BME280;49700;48.072;7.800;2022-10-19T06:47:39;100253.63;;;14.34;nan
63556;BME280;49700;48.072;7.800;2022-10-19T06:50:05;100253.63;;;14.34;nan
63556;BME280;49700;48.072;7.800;2022-10-19T06:52:32;100244.00;;;14.33;nan
63556;BME280;49700;48.072;7.800;2022-10-19T06:54:57;100251.41;;;14.28;nan
63556;BME280;49700;48.072;7.800;2022-10-19T06:57:22;100248.88;;;14.27;nan
63556;BME280;49700;48.072;7.800;2022-10-19T06:59:48;100247.91;;;14.28;nan
63556;BME280;49700;48.072;7.800;2022-10-19T07:02:13;100251.22;;;14.31;nan
63556;BME280;49700;48.072;7.800;2022-10-19T07:04:39;100248.56;;;14.31;nan
63556;BME280;49700;48.072;7.800;2022-10-19T07:07:04;100251.22;;;14.31;nan
63556;BME280;49700;48.072;7.800;2022-10-19T07:09:29;100251.94;;;14.33;nan
63556;BME280;49700;48.072;7.800;2022-10-19T07:11:55;100243.59;;;14.39;nan
63556;BME280;49700;48.072;7.800;2022-10-19T07:14:20;100247.69;;;14.44;nan
63556;BME280;49700;48.072;7.800;2022-10-19T07:16:49;100253.75;;;14.46;nan
63556;BME280;49700;48.072;7.800;2022-10-19T07:19:14;100243.25;;;14.44;nan
63556;BME280;49700;48.072;7.800;2022-10-19T07:21:40;100246.03;;;14.43;nan
63556;BME280;49700;48.072;7.800;2022-10-19T07:24:07;100238.84;;;14.45;nan
63556;BME280;49700;48.072;7.800;2022-10-19T07:26:33;100240.53;;;14.46;nan
63556;BME280;49700;48.072;7.800;2022-10-19T07:28:59;100244.13;;;14.45;nan
63556;BME280;49700;48.072;7.800;2022-10-19T07:31:26;100242.31;;;14.45;nan
63556;BME280;49700;48.072;7.800;2022-10-19T07:33:57;100241.13;;;14.49;nan
63556;BME280;49700;48.072;7.800;2022-10-19T07:36:24;100253.03;;;14.56;nan
63556;BME280;49700;48.072;7.800;2022-10-19T07:38:49;100249.84;;;14.64;nan
63556;BME280;49700;48.072;7.800;2022-10-19T07:41:17;100244.84;;;14.72;nan
63556;BME280;49700;48.072;7.800;2022-10-19T07:43:44;100245.16;;;14.80;nan
63556;BME280;49700;48.072;7.800;2022-10-19T07:46:12;100249.16;;;14.86;nan
63556;BME280;49700;48.072;7.800;2022-10-19T07:48:38;100252.66;;;14.87;nan
63556;BME280;49700;48.072;7.800;2022-10-19T07:51:05;100247.34;;;14.87;nan
63556;BME280;49700;48.072;7.800;2022-10-19T07:53:31;100248.09;;;14.89;nan
63556;BME280;49700;48.072;7.800;2022-10-19T07:56:05;100249.56;;;14.93;nan
63556;BME280;49700;48.072;7.800;2022-10-19T07:58:30;100252.72;;;14.98;nan
63556;BME280;49700;48.072;7.800;2022-10-19T08:01:04;100252.41;;;15.02;nan
63556;BME280;49700;48.072;7.800;2022-10-19T08:03:30;100245.06;;;15.06;nan
63556;BME280;49700;48.072;7.800;2022-10-19T08:06:03;100244.13;;;15.07;nan
63556;BME280;49700;48.072;7.800;2022-10-19T08:08:30;100248.25;;;15.11;nan
63556;BME280;49700;48.072;7.800;2022-10-19T08:10:56;100254.03;;;15.16;nan
63556;BME280;49700;48.072;7.800;2022-10-19T08:13:21;100255.53;;;15.20;nan
63556;BME280;49700;48.072;7.800;2022-10-19T08:15:47;100254.47;;;15.23;nan
63556;BME280;49700;48.072;7.800;2022-10-19T08:18:12;100252.66;;;15.23;nan
63556;BME280;49700;48.072;7.800;2022-10-19T08:20:42;100252.88;;;15.20;nan
63556;BME280;49700;48.072;7.800;2022-10-19T08:23:08;100248.53;;;15.19;nan
63556;BME280;49700;48.072;7.800;2022-10-19T08:25:33;100246.09;;;15.16;nan
63556;BME280;49700;48.072;7.800;2022-10-19T08:27:59;100242.72;;;15.14;nan
63556;BME280;49700;48.072;7.800;2022-10-19T08:30:25;100253.44;;;15.13;nan
63556;BME280;49700;48.072;7.800;2022-10-19T08:32:50;100255.13;;;15.14;nan
63556;BME280;49700;48.072;7.800;2022-10-19T08:35:16;100256.78;;;15.15;nan
63556;BME280;49700;48.072;7.800;2022-10-19T08:37:41;100247.78;;;15.17;nan
63556;BME280;49700;48.072;7.800;2022-10-19T08:40:16;100238.47;;;15.24;nan
63556;BME280;49700;48.072;7.800;2022-10-19T08:42:51;100244.25;;;15.30;nan
63556;BME280;49700;48.072;7.800;2022-10-19T08:48:37;100236.94;;;15.33;nan
63556;BME280;49700;48.072;7.800;2022-10-19T08:51:04;100239.47;;;15.35;nan
63556;BME280;49700;48.072;7.800;2022-10-19T08:53:47;100235.88;;;15.36;nan
63556;BME280;49700;48.072;7.800;2022-10-19T08:56:20;100229.50;;;15.38;nan
63556;BME280;49700;48.072;7.800;2022-10-19T09:01:32;100231.81;;;15.43;nan
63556;BME280;49700;48.072;7.800;2022-10-19T09:04:06;100222.91;;;15.44;nan
63556;BME280;49700;48.072;7.800;2022-10-19T09:06:47;100229.44;;;15.51;nan
63556;BME280;49700;48.072;7.800;2022-10-19T09:09:17;100234.28;;;15.57;nan
63556;BME280;49700;48.072;7.800;2022-10-19T09:11:47;100229.63;;;15.61;nan
63556;BME280;49700;48.072;7.800;2022-10-19T09:14:29;100225.03;;;15.63;nan
63556;BME280;49700;48.072;7.800;2022-10-19T09:17:00;100226.84;;;15.62;nan
63556;BME280;49700;48.072;7.800;2022-10-19T09:19:27;100230.44;;;15.61;nan
63556;BME280;49700;48.072;7.800;2022-10-19T09:21:59;100227.56;;;15.64;nan
63556;BME280;49700;48.072;7.800;2022-10-19T09:25:03;100224.50;;;15.70;nan
63556;BME280;49700;48.072;7.800;2022-10-19T09:27:40;100217.03;;;15.76;nan
63556;BME280;49700;48.072;7.800;2022-10-19T09:30:18;100222.34;;;15.76;nan
63556;BME280;49700;48.072;7.800;2022-10-19T09:32:44;100214.28;;;15.77;nan
63556;BME280;49700;48.072;7.800;2022-10-19T09:37:53;100210.50;;;15.68;nan
63556;BME280;49700;48.072;7.800;2022-10-19T09:40:26;100214.81;;;15.58;nan
63556;BME280;49700;48.072;7.800;2022-10-19T09:42:52;100213.09;;;15.57;nan
63556;BME280;49700;48.072;7.800;2022-10-19T09:45:32;100216.47;;;15.59;nan
63556;BME280;49700;48.072;7.800;2022-10-19T09:48:01;100218.66;;;15.65;nan
63556;BME280;49700;48.072;7.800;2022-10-19T09:50:29;100222.81;;;15.69;nan
63556;BME280;49700;48.072;7.800;2022-10-19T09:52:56;100208.72;;;15.69;nan
63556;BME280;49700;48.072;7.800;2022-10-19T09:55:28;100209.97;;;15.63;nan
63556;BME280;49700;48.072;7.800;2022-10-19T09:58:00;100211.91;;;15.61;nan
63556;BME280;49700;48.072;7.800;2022-10-19T10:00:36;100207.31;;;15.63;nan
63556;BME280;49700;48.072;7.800;2022-10-19T10:03:03;100200.78;;;15.69;nan
63556;BME280;49700;48.072;7.800;2022-10-19T10:05:34;100202.72;;;15.78;nan
63556;BME280;49700;48.072;7.800;2022-10-19T10:08:00;100193.47;;;15.84;nan
63556;BME280;49700;48.072;7.800;2022-10-19T10:10:29;100194.69;;;15.91;nan
63556;BME280;49700;48.072;7.800;2022-10-19T10:12:58;100190.34;;;16.01;nan
63556;BME280;49700;48.072;7.800;2022-10-19T10:15:27;100198.59;;;16.09;nan
63556;BME280;49700;48.072;7.800;2022-10-19T10:17:55;100186.88;;;16.12;nan
63556;BME280;49700;48.072;7.800;2022-10-19T10:23:00;100179.16;;;16.20;nan
63556;BME280;49700;48.072;7.800;2022-10-19T10:25:31;100184.63;;;16.30;nan
63556;BME280;49700;48.072;7.800;2022-10-19T10:28:20;100190.28;;;16.36;nan
63556;BME280;49700;48.072;7.800;2022-10-19T10:30:52;100185.59;;;16.40;nan
63556;BME280;49700;48.072;7.800;2022-10-19T10:33:23;100174.63;;;16.45;nan
63556;BME280;49700;48.072;7.800;2022-10-19T10:35:51;100174.47;;;16.46;nan
63556;BME280;49700;48.072;7.800;2022-10-19T10:38:26;100168.69;;;16.52;nan
63556;BME280;49700;48.072;7.800;2022-10-19T10:41:21;100170.63;;;16.50;nan
63556;BME280;49700;48.072;7.800;2022-10-19T10:43:58;100173.28;;;16.50;nan
63556;BME280;49700;48.072;7.800;2022-10-19T10:46:32;100166.66;;;16.45;nan
63556;BME280;49700;48.072;7.800;2022-10-19T10:49:03;100168.69;;;16.41;nan
63556;BME280;49700;48.072;7.800;2022-10-19T10:51:43;100163.78;;;16.36;nan
63556;BME280;49700;48.072;7.800;2022-10-19T10:54:19;100161.25;;;16.35;nan
63556;BME280;49700;48.072;7.800;2022-10-19T11:02:27;100137.84;;;16.51;nan
63556;BME280;49700;48.072;7.800;2022-10-19T11:04:59;100135.66;;;16.56;nan
63556;BME280;49700;48.072;7.800;2022-10-19T11:07:29;100139.75;;;16.60;nan
63556;BME280;49700;48.072;7.800;2022-10-19T11:09:58;100132.50;;;16.63;nan
63556;BME280;49700;48.072;7.800;2022-10-19T11:12:35;100130.34;;;16.68;nan
63556;BME280;49700;48.072;7.800;2022-10-19T11:15:19;100121.88;;;16.74;nan
63556;BME280;49700;48.072;7.800;2022-10-19T11:18:40;100114.56;;;16.77;nan
63556;BME280;49700;48.072;7.800;2022-10-19T11:21:13;100108.41;;;16.77;nan
63556;BME280;49700;48.072;7.800;2022-10-19T11:29:15;100093.19;;;16.79;nan
63556;BME280;49700;48.072;7.800;2022-10-19T11:31:52;100090.91;;;16.74;nan
63556;BME280;49700;48.072;7.800;2022-10-19T11:37:29;100086.88;;;16.91;nan
63556;BME280;49700;48.072;7.800;2022-10-19T11:43:04;100076.81;;;17.06;nan
63556;BME280;49700;48.072;7.800;2022-10-19T11:46:08;100073.00;;;17.20;nan
63556;BME280;49700;48.072;7.800;2022-10-19T11:53:59;100047.28;;;17.41;nan
63556;BME280;49700;48.072;7.800;2022-10-19T11:56:48;100045.78;;;17.48;nan
63556;BME280;49700;48.072;7.800;2022-10-19T11:59:31;100043.31;;;17.57;nan
63556;BME280;49700;48.072;7.800;2022-10-19T12:12:57;100039.34;;;17.72;nan
63556;BME280;49700;48.072;7.800;2022-10-19T12:15:32;100031.38;;;17.72;nan
63556;BME280;49700;48.072;7.800;2022-10-19T12:18:56;100024.97;;;17.75;nan
63556;BME280;49700;48.072;7.800;2022-10-19T12:21:01;100022.88;;;17.78;nan
63556;BME280;49700;48.072;7.800;2022-10-19T12:23:36;100012.44;;;17.86;nan
63556;BME280;49700;48.072;7.800;2022-10-19T12:26:05;100011.91;;;17.92;nan
63556;BME280;49700;48.072;7.800;2022-10-19T12:28:35;99997.94;;;18.00;nan
63556;BME280;49700;48.072;7.800;2022-10-19T12:31:03;99993.63;;;18.09;nan
63556;BME280;49700;48.072;7.800;2022-10-19T12:36:46;99992.41;;;18.23;nan
63556;BME280;49700;48.072;7.800;2022-10-19T12:42:14;99984.72;;;18.29;nan
63556;BME280;49700;48.072;7.800;2022-10-19T12:47:38;99988.31;;;18.19;nan
63556;BME280;49700;48.072;7.800;2022-10-19T12:50:04;99980.22;;;18.20;nan
63556;BME280;49700;48.072;7.800;2022-10-19T12:52:46;99983.84;;;18.19;nan
63556;BME280;49700;48.072;7.800;2022-10-19T12:55:27;99975.31;;;18.16;nan
63556;BME280;49700;48.072;7.800;2022-10-19T12:58:04;99965.63;;;18.14;nan
63556;BME280;49700;48.072;7.800;2022-10-19T13:00:35;99962.03;;;18.16;nan
63556;BME280;49700;48.072;7.800;2022-10-19T13:03:37;99958.38;;;18.17;nan
63556;BME280;49700;48.072;7.800;2022-10-19T13:06:10;99960.75;;;18.20;nan
63556;BME280;49700;48.072;7.800;2022-10-19T13:11:18;99946.38;;;18.32;nan
63556;BME280;49700;48.072;7.800;2022-10-19T13:14:03;99947.63;;;18.38;nan
63556;BME280;49700;48.072;7.800;2022-10-19T13:29:40;99935.44;;;18.35;nan
63556;BME280;49700;48.072;7.800;2022-10-19T13:35:33;99928.31;;;18.45;nan
63556;BME280;49700;48.072;7.800;2022-10-19T13:38:09;99929.56;;;18.51;nan
63556;BME280;49700;48.072;7.800;2022-10-19T13:40:36;99931.09;;;18.53;nan
63556;BME280;49700;48.072;7.800;2022-10-19T13:43:03;99921.00;;;18.57;nan
63556;BME280;49700;48.072;7.800;2022-10-19T13:45:29;99919.88;;;18.60;nan
63556;BME280;49700;48.072;7.800;2022-10-19T13:48:03;99924.38;;;18.59;nan
63556;BME280;49700;48.072;7.800;2022-10-19T13:50:47;99918.63;;;18.54;nan
63556;BME280;49700;48.072;7.800;2022-10-19T13:53:31;99918.81;;;18.52;nan
63556;BME280;49700;48.072;7.800;2022-10-19T13:59:04;99916.28;;;18.51;nan
63556;BME280;49700;48.072;7.800;2022-10-19T14:01:50;99910.13;;;18.50;nan
63556;BME280;49700;48.072;7.800;2022-10-19T14:04:49;99909.00;;;18.53;nan
63556;BME280;49700;48.072;7.800;2022-10-19T14:07:25;99911.38;;;18.56;nan
63556;BME280;49700;48.072;7.800;2022-10-19T14:10:11;99917.09;;;18.61;nan
63556;BME280;49700;48.072;7.800;2022-10-19T14:12:41;99919.91;;;18.69;nan
63556;BME280;49700;48.072;7.800;2022-10-19T14:15:19;99917.41;;;18.77;nan
63556;BME280;49700;48.072;7.800;2022-10-19T14:17:45;99914.16;;;18.84;nan
63556;BME280;49700;48.072;7.800;2022-10-19T14:22:51;99916.41;;;18.78;nan
63556;BME280;49700;48.072;7.800;2022-10-19T14:25:25;99901.56;;;18.66;nan
63556;BME280;49700;48.072;7.800;2022-10-19T14:28:03;99902.81;;;18.62;nan
63556;BME280;49700;48.072;7.800;2022-10-19T14:30:34;99898.78;;;18.58;nan
63556;BME280;49700;48.072;7.800;2022-10-19T14:33:01;99898.75;;;18.48;nan
63556;BME280;49700;48.072;7.800;2022-10-19T14:35:33;99895.56;;;18.45;nan
63556;BME280;49700;48.072;7.800;2022-10-19T14:37:59;99898.91;;;18.47;nan
63556;BME280;49700;48.072;7.800;2022-10-19T14:40:31;99884.63;;;18.48;nan
63556;BME280;49700;48.072;7.800;2022-10-19T14:42:58;99877.34;;;18.50;nan
63556;BME280;49700;48.072;7.800;2022-10-19T14:45:29;99881.69;;;18.51;nan
63556;BME280;49700;48.072;7.800;2022-10-19T14:48:01;99892.03;;;18.54;nan
63556;BME280;49700;48.072;7.800;2022-10-19T14:53:52;99894.81;;;18.62;nan
63556;BME280;49700;48.072;7.800;2022-10-19T14:55:53;99888.81;;;18.60;nan
63556;BME280;49700;48.072;7.800;2022-10-19T14:58:21;99885.31;;;18.60;nan